Pagina principale
METAR-TAF:

METAR-TAF

Aeroporti :

Aeroporto di Gioia del Colle

Gioia del Colle, Italia

latitudine: 40-46N, longitudine: 016-56E, altezza: 345 m

Osservazione

Il bollettino è stato emesso 35 minuti fa, alle 09:55 UTC
Vento 10 kt da sud/sud-est, variando fra sud-est e sud
Temperature 12°C
Umidità 71%
Pressione 1011 hPa
Visibilità: 8000 m
Poco nuvoloso ad un'altezza di 1300 ft
Nubi sparse ad un'altezza di 1800 ft

METAR: LIBV 090955Z 16010KT 130V190 8000 FEW013 SCT018 12/07 Q1011 RMK BKN BKN200 VIS MIN 8000 WIND THR32 17008KT WIND THR14 17011KT BLU

Ora: 11:30 (10:30 UTC)

Previsione

Il bollettino è stato emesso 2 ore e 30 minuti fa, alle 08:00 UTC
Previsione valida dal 09 alle 09 UTC al 09 alle 18 UTC
Vento 13 kt da sud
Visibilità: 8000 m
Nubi sparse ad un'altezza di 1000 ft
Nubi sparse ad un'altezza di 1500 ft

TAF: LIBV 090800Z 0909/0918 17013KT 8000 SCT010 SCT015

Osservazioni e previsioni meteorologiche di più di 4000 aeroporti (messaggi METAR e TAF).

Le stazioni disponibili sono rappresentate dai dischi gialli e rossi sulla carta.

Puntare il mouse per vedere il nome della stazione.

Clicca sopra per visualizzare le osservazioni e previsioni meteorologiche.

Per cambiare la mappa : fare clic sui pulsanti verdi con una croce nera per ingrandire, il pulsante verde con un trattino per diminuire, o sulla freccia verde per le mappe adiacenti.


METAR-TAF: